sensor_id;sensor_type;location;lat;lon;timestamp;P1;durP1;ratioP1;P2;durP2;ratioP2
76194;SDS011;64964;48.694;21.206;2023-02-08T00:01:48;18.43;;;7.13;;
76194;SDS011;64964;48.694;21.206;2023-02-08T00:04:13;15.27;;;6.23;;
76194;SDS011;64964;48.694;21.206;2023-02-08T00:06:39;14.30;;;6.07;;
76194;SDS011;64964;48.694;21.206;2023-02-08T00:09:04;16.50;;;6.80;;
76194;SDS011;64964;48.694;21.206;2023-02-08T00:11:31;18.08;;;6.90;;
76194;SDS011;64964;48.694;21.206;2023-02-08T00:13:56;14.57;;;6.50;;
76194;SDS011;64964;48.694;21.206;2023-02-08T00:16:21;16.40;;;6.87;;
76194;SDS011;64964;48.694;21.206;2023-02-08T00:18:47;14.80;;;6.15;;
76194;SDS011;64964;48.694;21.206;2023-02-08T00:21:13;13.93;;;6.47;;
76194;SDS011;64964;48.694;21.206;2023-02-08T00:23:40;12.10;;;5.93;;
76194;SDS011;64964;48.694;21.206;2023-02-08T00:26:06;18.27;;;6.37;;
76194;SDS011;64964;48.694;21.206;2023-02-08T00:28:32;17.83;;;6.95;;
76194;SDS011;64964;48.694;21.206;2023-02-08T00:30:58;17.93;;;7.27;;
76194;SDS011;64964;48.694;21.206;2023-02-08T00:33:23;16.23;;;6.00;;
76194;SDS011;64964;48.694;21.206;2023-02-08T00:35:49;15.93;;;7.15;;
76194;SDS011;64964;48.694;21.206;2023-02-08T00:38:14;16.77;;;7.40;;
76194;SDS011;64964;48.694;21.206;2023-02-08T00:40:39;19.13;;;7.53;;
76194;SDS011;64964;48.694;21.206;2023-02-08T00:43:05;18.90;;;8.00;;
76194;SDS011;64964;48.694;21.206;2023-02-08T00:45:31;16.13;;;6.38;;
76194;SDS011;64964;48.694;21.206;2023-02-08T00:47:57;17.33;;;7.03;;
76194;SDS011;64964;48.694;21.206;2023-02-08T00:50:22;16.47;;;6.77;;
76194;SDS011;64964;48.694;21.206;2023-02-08T00:52:47;16.97;;;7.67;;
76194;SDS011;64964;48.694;21.206;2023-02-08T00:55:13;19.23;;;7.73;;
76194;SDS011;64964;48.694;21.206;2023-02-08T00:57:38;20.93;;;7.97;;
76194;SDS011;64964;48.694;21.206;2023-02-08T01:00:04;17.63;;;6.87;;
76194;SDS011;64964;48.694;21.206;2023-02-08T01:02:30;16.50;;;6.70;;
76194;SDS011;64964;48.694;21.206;2023-02-08T01:04:56;17.03;;;7.37;;
76194;SDS011;64964;48.694;21.206;2023-02-08T01:07:21;16.00;;;6.80;;
76194;SDS011;64964;48.694;21.206;2023-02-08T01:09:47;18.67;;;7.07;;
76194;SDS011;64964;48.694;21.206;2023-02-08T01:12:12;15.47;;;6.77;;
76194;SDS011;64964;48.694;21.206;2023-02-08T01:14:37;16.67;;;6.73;;
76194;SDS011;64964;48.694;21.206;2023-02-08T01:17:03;15.13;;;7.05;;
76194;SDS011;64964;48.694;21.206;2023-02-08T01:19:29;14.00;;;6.77;;
76194;SDS011;64964;48.694;21.206;2023-02-08T01:21:54;16.80;;;7.17;;
76194;SDS011;64964;48.694;21.206;2023-02-08T01:24:20;16.50;;;7.22;;
76194;SDS011;64964;48.694;21.206;2023-02-08T01:26:45;17.77;;;7.93;;
76194;SDS011;64964;48.694;21.206;2023-02-08T01:29:11;17.13;;;7.20;;
76194;SDS011;64964;48.694;21.206;2023-02-08T01:31:37;19.02;;;7.40;;
76194;SDS011;64964;48.694;21.206;2023-02-08T01:34:05;16.13;;;6.70;;
76194;SDS011;64964;48.694;21.206;2023-02-08T01:36:31;17.73;;;7.00;;
76194;SDS011;64964;48.694;21.206;2023-02-08T01:38:58;16.85;;;7.53;;
76194;SDS011;64964;48.694;21.206;2023-02-08T01:41:32;20.17;;;7.60;;
76194;SDS011;64964;48.694;21.206;2023-02-08T01:46:28;16.05;;;6.47;;
76194;SDS011;64964;48.694;21.206;2023-02-08T01:48:54;16.60;;;7.18;;
76194;SDS011;64964;48.694;21.206;2023-02-08T01:51:25;16.55;;;6.88;;
76194;SDS011;64964;48.694;21.206;2023-02-08T01:53:54;13.47;;;6.00;;
76194;SDS011;64964;48.694;21.206;2023-02-08T01:56:26;17.05;;;7.28;;
76194;SDS011;64964;48.694;21.206;2023-02-08T01:58:58;20.20;;;7.53;;
76194;SDS011;64964;48.694;21.206;2023-02-08T02:01:28;13.93;;;5.85;;
76194;SDS011;64964;48.694;21.206;2023-02-08T02:03:56;17.45;;;6.65;;
76194;SDS011;64964;48.694;21.206;2023-02-08T02:06:25;15.97;;;7.00;;
76194;SDS011;64964;48.694;21.206;2023-02-08T02:09:11;17.52;;;7.13;;
76194;SDS011;64964;48.694;21.206;2023-02-08T02:11:42;16.58;;;6.93;;
76194;SDS011;64964;48.694;21.206;2023-02-08T02:14:08;20.13;;;6.73;;
76194;SDS011;64964;48.694;21.206;2023-02-08T02:16:34;19.05;;;7.20;;
76194;SDS011;64964;48.694;21.206;2023-02-08T02:19:00;19.30;;;7.18;;
76194;SDS011;64964;48.694;21.206;2023-02-08T02:21:30;19.10;;;7.03;;
76194;SDS011;64964;48.694;21.206;2023-02-08T02:41:04;19.43;;;7.03;;
76194;SDS011;64964;48.694;21.206;2023-02-08T02:52:01;16.52;;;6.25;;
76194;SDS011;64964;48.694;21.206;2023-02-08T02:54:32;17.13;;;7.10;;
76194;SDS011;64964;48.694;21.206;2023-02-08T02:57:06;14.93;;;6.00;;
76194;SDS011;64964;48.694;21.206;2023-02-08T02:59:35;13.80;;;5.32;;
76194;SDS011;64964;48.694;21.206;2023-02-08T03:02:02;12.82;;;5.60;;
76194;SDS011;64964;48.694;21.206;2023-02-08T03:07:19;14.93;;;6.63;;
76194;SDS011;64964;48.694;21.206;2023-02-08T03:17:32;16.08;;;6.97;;
76194;SDS011;64964;48.694;21.206;2023-02-08T03:20:03;14.10;;;6.50;;
76194;SDS011;64964;48.694;21.206;2023-02-08T03:22:44;16.83;;;7.20;;
76194;SDS011;64964;48.694;21.206;2023-02-08T03:25:23;14.27;;;6.35;;
76194;SDS011;64964;48.694;21.206;2023-02-08T03:28:00;18.38;;;7.35;;
76194;SDS011;64964;48.694;21.206;2023-02-08T03:30:48;17.60;;;7.03;;
76194;SDS011;64964;48.694;21.206;2023-02-08T03:33:24;16.83;;;6.43;;
76194;SDS011;64964;48.694;21.206;2023-02-08T03:36:07;19.20;;;7.03;;
76194;SDS011;64964;48.694;21.206;2023-02-08T03:38:42;14.75;;;6.80;;
76194;SDS011;64964;48.694;21.206;2023-02-08T03:41:13;15.70;;;6.68;;
76194;SDS011;64964;48.694;21.206;2023-02-08T03:43:43;13.65;;;5.95;;
76194;SDS011;64964;48.694;21.206;2023-02-08T03:46:15;15.40;;;6.23;;
76194;SDS011;64964;48.694;21.206;2023-02-08T03:48:48;17.85;;;6.32;;
76194;SDS011;64964;48.694;21.206;2023-02-08T03:51:17;14.18;;;6.00;;
76194;SDS011;64964;48.694;21.206;2023-02-08T03:53:45;10.63;;;4.32;;
76194;SDS011;64964;48.694;21.206;2023-02-08T03:56:19;15.63;;;6.80;;
76194;SDS011;64964;48.694;21.206;2023-02-08T03:58:53;14.63;;;6.10;;
76194;SDS011;64964;48.694;21.206;2023-02-08T04:01:26;16.48;;;6.88;;
76194;SDS011;64964;48.694;21.206;2023-02-08T04:03:56;17.38;;;6.68;;
76194;SDS011;64964;48.694;21.206;2023-02-08T04:06:23;14.23;;;6.18;;
76194;SDS011;64964;48.694;21.206;2023-02-08T04:08:48;17.07;;;5.93;;
76194;SDS011;64964;48.694;21.206;2023-02-08T04:11:14;18.70;;;7.05;;
76194;SDS011;64964;48.694;21.206;2023-02-08T04:13:40;15.87;;;6.23;;
76194;SDS011;64964;48.694;21.206;2023-02-08T04:16:06;17.02;;;6.80;;
76194;SDS011;64964;48.694;21.206;2023-02-08T04:18:31;15.53;;;6.27;;
76194;SDS011;64964;48.694;21.206;2023-02-08T04:20:56;14.93;;;6.53;;
76194;SDS011;64964;48.694;21.206;2023-02-08T04:23:22;17.13;;;6.43;;
76194;SDS011;64964;48.694;21.206;2023-02-08T04:25:47;15.43;;;6.03;;
76194;SDS011;64964;48.694;21.206;2023-02-08T04:28:12;14.48;;;5.97;;
76194;SDS011;64964;48.694;21.206;2023-02-08T04:30:38;12.77;;;6.53;;
76194;SDS011;64964;48.694;21.206;2023-02-08T04:33:03;14.90;;;6.37;;
76194;SDS011;64964;48.694;21.206;2023-02-08T04:35:29;13.77;;;5.87;;
76194;SDS011;64964;48.694;21.206;2023-02-08T04:37:54;16.97;;;6.50;;
76194;SDS011;64964;48.694;21.206;2023-02-08T04:40:19;14.27;;;6.30;;
76194;SDS011;64964;48.694;21.206;2023-02-08T04:42:45;16.90;;;6.90;;
76194;SDS011;64964;48.694;21.206;2023-02-08T04:45:10;13.20;;;5.70;;
76194;SDS011;64964;48.694;21.206;2023-02-08T04:47:35;16.23;;;6.20;;
76194;SDS011;64964;48.694;21.206;2023-02-08T04:50:01;14.27;;;6.10;;
76194;SDS011;64964;48.694;21.206;2023-02-08T04:52:26;14.73;;;6.15;;
76194;SDS011;64964;48.694;21.206;2023-02-08T04:54:52;12.90;;;6.10;;
76194;SDS011;64964;48.694;21.206;2023-02-08T04:57:17;16.00;;;6.60;;
76194;SDS011;64964;48.694;21.206;2023-02-08T04:59:42;11.97;;;5.43;;
76194;SDS011;64964;48.694;21.206;2023-02-08T05:02:08;14.77;;;5.55;;
76194;SDS011;64964;48.694;21.206;2023-02-08T05:04:33;19.57;;;6.80;;
76194;SDS011;64964;48.694;21.206;2023-02-08T05:06:59;15.80;;;6.40;;
76194;SDS011;64964;48.694;21.206;2023-02-08T05:09:25;15.93;;;6.10;;
76194;SDS011;64964;48.694;21.206;2023-02-08T05:11:50;11.23;;;5.53;;
76194;SDS011;64964;48.694;21.206;2023-02-08T05:14:15;12.60;;;5.40;;
76194;SDS011;64964;48.694;21.206;2023-02-08T05:16:41;12.00;;;5.30;;
76194;SDS011;64964;48.694;21.206;2023-02-08T05:19:06;13.85;;;6.07;;
76194;SDS011;64964;48.694;21.206;2023-02-08T05:21:31;11.47;;;5.40;;
76194;SDS011;64964;48.694;21.206;2023-02-08T05:23:57;14.83;;;5.87;;
76194;SDS011;64964;48.694;21.206;2023-02-08T05:26:22;13.53;;;6.10;;
76194;SDS011;64964;48.694;21.206;2023-02-08T05:28:48;12.33;;;5.67;;
76194;SDS011;64964;48.694;21.206;2023-02-08T05:31:17;10.67;;;4.93;;
76194;SDS011;64964;48.694;21.206;2023-02-08T05:33:47;14.03;;;5.60;;
76194;SDS011;64964;48.694;21.206;2023-02-08T05:36:13;14.00;;;5.18;;
76194;SDS011;64964;48.694;21.206;2023-02-08T05:38:38;15.80;;;5.83;;
76194;SDS011;64964;48.694;21.206;2023-02-08T05:41:04;11.13;;;5.13;;
76194;SDS011;64964;48.694;21.206;2023-02-08T05:43:29;14.63;;;5.03;;
76194;SDS011;64964;48.694;21.206;2023-02-08T05:45:55;13.47;;;5.03;;
76194;SDS011;64964;48.694;21.206;2023-02-08T05:48:20;12.70;;;5.50;;
76194;SDS011;64964;48.694;21.206;2023-02-08T05:50:46;13.88;;;5.22;;
76194;SDS011;64964;48.694;21.206;2023-02-08T05:53:11;12.77;;;4.80;;
76194;SDS011;64964;48.694;21.206;2023-02-08T05:55:36;16.17;;;5.30;;
76194;SDS011;64964;48.694;21.206;2023-02-08T05:58:02;10.57;;;4.80;;
76194;SDS011;64964;48.694;21.206;2023-02-08T06:00:27;12.30;;;4.77;;
76194;SDS011;64964;48.694;21.206;2023-02-08T06:02:53;10.70;;;4.93;;
76194;SDS011;64964;48.694;21.206;2023-02-08T06:05:18;5.33;;;2.77;;
76194;SDS011;64964;48.694;21.206;2023-02-08T06:07:43;11.70;;;4.57;;
76194;SDS011;64964;48.694;21.206;2023-02-08T06:10:09;11.33;;;4.67;;
76194;SDS011;64964;48.694;21.206;2023-02-08T06:12:34;11.10;;;4.55;;
76194;SDS011;64964;48.694;21.206;2023-02-08T06:15:00;8.93;;;4.53;;
76194;SDS011;64964;48.694;21.206;2023-02-08T06:17:25;9.80;;;4.57;;
76194;SDS011;64964;48.694;21.206;2023-02-08T06:19:51;12.27;;;4.85;;
76194;SDS011;64964;48.694;21.206;2023-02-08T06:22:16;10.90;;;4.87;;
76194;SDS011;64964;48.694;21.206;2023-02-08T06:24:41;10.07;;;4.43;;
76194;SDS011;64964;48.694;21.206;2023-02-08T06:27:07;11.90;;;4.80;;
76194;SDS011;64964;48.694;21.206;2023-02-08T06:29:32;8.90;;;4.43;;
76194;SDS011;64964;48.694;21.206;2023-02-08T06:31:58;9.07;;;4.50;;
76194;SDS011;64964;48.694;21.206;2023-02-08T06:34:23;11.70;;;4.57;;
76194;SDS011;64964;48.694;21.206;2023-02-08T06:36:48;12.63;;;3.97;;
76194;SDS011;64964;48.694;21.206;2023-02-08T06:39:15;11.52;;;4.10;;
76194;SDS011;64964;48.694;21.206;2023-02-08T06:41:41;8.32;;;4.75;;
76194;SDS011;64964;48.694;21.206;2023-02-08T06:44:06;10.47;;;3.83;;
76194;SDS011;64964;48.694;21.206;2023-02-08T06:46:31;12.50;;;4.57;;
76194;SDS011;64964;48.694;21.206;2023-02-08T06:48:57;10.10;;;4.33;;
76194;SDS011;64964;48.694;21.206;2023-02-08T06:51:24;9.13;;;4.38;;
76194;SDS011;64964;48.694;21.206;2023-02-08T06:53:50;11.85;;;4.72;;
76194;SDS011;64964;48.694;21.206;2023-02-08T06:56:15;9.67;;;3.87;;
76194;SDS011;64964;48.694;21.206;2023-02-08T06:58:41;12.23;;;5.10;;
76194;SDS011;64964;48.694;21.206;2023-02-08T07:01:10;11.50;;;5.13;;
76194;SDS011;64964;48.694;21.206;2023-02-08T07:03:36;9.50;;;4.60;;
76194;SDS011;64964;48.694;21.206;2023-02-08T07:06:01;11.53;;;5.37;;
76194;SDS011;64964;48.694;21.206;2023-02-08T07:08:27;11.13;;;5.20;;
76194;SDS011;64964;48.694;21.206;2023-02-08T07:10:52;10.73;;;5.60;;
76194;SDS011;64964;48.694;21.206;2023-02-08T07:13:17;12.85;;;5.13;;
76194;SDS011;64964;48.694;21.206;2023-02-08T07:15:43;11.30;;;4.60;;
76194;SDS011;64964;48.694;21.206;2023-02-08T07:18:08;12.17;;;5.20;;
76194;SDS011;64964;48.694;21.206;2023-02-08T07:20:33;12.33;;;4.57;;
76194;SDS011;64964;48.694;21.206;2023-02-08T07:22:59;10.87;;;4.93;;
76194;SDS011;64964;48.694;21.206;2023-02-08T07:25:24;10.70;;;4.90;;
76194;SDS011;64964;48.694;21.206;2023-02-08T07:27:50;10.73;;;5.07;;
76194;SDS011;64964;48.694;21.206;2023-02-08T07:30:16;11.52;;;4.88;;
76194;SDS011;64964;48.694;21.206;2023-02-08T07:32:41;14.10;;;5.30;;
76194;SDS011;64964;48.694;21.206;2023-02-08T07:35:06;11.03;;;4.87;;
76194;SDS011;64964;48.694;21.206;2023-02-08T07:37:32;11.20;;;5.13;;
76194;SDS011;64964;48.694;21.206;2023-02-08T07:39:57;12.57;;;4.93;;
76194;SDS011;64964;48.694;21.206;2023-02-08T07:42:23;11.00;;;4.90;;
76194;SDS011;64964;48.694;21.206;2023-02-08T07:44:48;13.07;;;5.67;;
76194;SDS011;64964;48.694;21.206;2023-02-08T07:47:14;10.48;;;4.65;;
76194;SDS011;64964;48.694;21.206;2023-02-08T07:49:41;10.13;;;4.95;;
76194;SDS011;64964;48.694;21.206;2023-02-08T07:52:06;11.13;;;4.63;;
76194;SDS011;64964;48.694;21.206;2023-02-08T07:54:31;10.07;;;4.80;;
76194;SDS011;64964;48.694;21.206;2023-02-08T07:56:57;8.87;;;4.20;;
76194;SDS011;64964;48.694;21.206;2023-02-08T07:59:22;10.57;;;5.03;;
76194;SDS011;64964;48.694;21.206;2023-02-08T08:01:48;10.20;;;4.57;;
76194;SDS011;64964;48.694;21.206;2023-02-08T08:04:13;9.70;;;4.67;;
76194;SDS011;64964;48.694;21.206;2023-02-08T08:06:38;10.83;;;4.80;;
76194;SDS011;64964;48.694;21.206;2023-02-08T08:09:04;11.10;;;4.57;;
76194;SDS011;64964;48.694;21.206;2023-02-08T08:11:29;10.10;;;4.50;;
76194;SDS011;64964;48.694;21.206;2023-02-08T08:13:55;9.43;;;4.60;;
76194;SDS011;64964;48.694;21.206;2023-02-08T08:16:20;11.40;;;5.20;;
76194;SDS011;64964;48.694;21.206;2023-02-08T08:18:46;10.20;;;4.47;;
76194;SDS011;64964;48.694;21.206;2023-02-08T08:21:12;8.77;;;4.50;;
76194;SDS011;64964;48.694;21.206;2023-02-08T08:23:39;11.07;;;4.83;;
76194;SDS011;64964;48.694;21.206;2023-02-08T08:26:05;9.15;;;5.05;;
76194;SDS011;64964;48.694;21.206;2023-02-08T08:28:37;11.90;;;4.90;;
76194;SDS011;64964;48.694;21.206;2023-02-08T08:31:07;9.07;;;4.97;;
76194;SDS011;64964;48.694;21.206;2023-02-08T08:33:34;10.90;;;5.10;;
76194;SDS011;64964;48.694;21.206;2023-02-08T08:35:59;9.10;;;4.97;;
76194;SDS011;64964;48.694;21.206;2023-02-08T08:38:24;8.27;;;4.80;;
76194;SDS011;64964;48.694;21.206;2023-02-08T08:40:50;9.43;;;5.37;;
76194;SDS011;64964;48.694;21.206;2023-02-08T08:43:15;9.87;;;5.10;;
76194;SDS011;64964;48.694;21.206;2023-02-08T08:45:41;8.67;;;5.37;;
76194;SDS011;64964;48.694;21.206;2023-02-08T08:48:06;8.30;;;4.87;;
76194;SDS011;64964;48.694;21.206;2023-02-08T08:50:31;8.90;;;5.23;;
76194;SDS011;64964;48.694;21.206;2023-02-08T08:52:57;9.23;;;5.00;;
76194;SDS011;64964;48.694;21.206;2023-02-08T08:55:22;8.03;;;4.87;;
76194;SDS011;64964;48.694;21.206;2023-02-08T08:57:47;9.50;;;5.07;;
76194;SDS011;64964;48.694;21.206;2023-02-08T09:00:14;8.32;;;5.07;;
76194;SDS011;64964;48.694;21.206;2023-02-08T09:02:39;8.07;;;4.80;;
76194;SDS011;64964;48.694;21.206;2023-02-08T09:05:05;7.47;;;4.50;;
76194;SDS011;64964;48.694;21.206;2023-02-08T09:07:32;8.25;;;4.95;;
76194;SDS011;64964;48.694;21.206;2023-02-08T09:09:57;6.88;;;4.63;;
76194;SDS011;64964;48.694;21.206;2023-02-08T09:12:23;7.50;;;4.63;;
76194;SDS011;64964;48.694;21.206;2023-02-08T09:14:48;7.37;;;4.53;;
76194;SDS011;64964;48.694;21.206;2023-02-08T09:17:13;7.77;;;5.23;;
76194;SDS011;64964;48.694;21.206;2023-02-08T09:19:39;7.00;;;4.10;;
76194;SDS011;64964;48.694;21.206;2023-02-08T09:22:05;7.03;;;4.40;;
76194;SDS011;64964;48.694;21.206;2023-02-08T09:24:31;6.57;;;4.60;;
76194;SDS011;64964;48.694;21.206;2023-02-08T09:26:57;6.50;;;4.27;;
76194;SDS011;64964;48.694;21.206;2023-02-08T09:29:22;6.00;;;4.20;;
76194;SDS011;64964;48.694;21.206;2023-02-08T09:31:47;10.83;;;4.80;;
76194;SDS011;64964;48.694;21.206;2023-02-08T09:34:13;6.30;;;4.07;;
76194;SDS011;64964;48.694;21.206;2023-02-08T09:36:39;6.17;;;4.30;;
76194;SDS011;64964;48.694;21.206;2023-02-08T09:39:25;7.55;;;4.38;;
76194;SDS011;64964;48.694;21.206;2023-02-08T09:44:52;7.22;;;4.80;;
76194;SDS011;64964;48.694;21.206;2023-02-08T09:47:33;8.10;;;4.60;;
76194;SDS011;64964;48.694;21.206;2023-02-08T09:52:28;6.90;;;4.37;;
76194;SDS011;64964;48.694;21.206;2023-02-08T09:55:03;7.78;;;4.43;;
76194;SDS011;64964;48.694;21.206;2023-02-08T09:57:38;7.57;;;4.72;;
76194;SDS011;64964;48.694;21.206;2023-02-08T10:00:09;7.72;;;4.45;;
76194;SDS011;64964;48.694;21.206;2023-02-08T10:02:42;7.97;;;4.67;;
76194;SDS011;64964;48.694;21.206;2023-02-08T10:05:13;8.32;;;4.72;;
76194;SDS011;64964;48.694;21.206;2023-02-08T10:07:43;6.40;;;4.20;;
76194;SDS011;64964;48.694;21.206;2023-02-08T10:10:19;7.17;;;4.80;;
76194;SDS011;64964;48.694;21.206;2023-02-08T10:12:56;8.05;;;4.65;;
76194;SDS011;64964;48.694;21.206;2023-02-08T10:15:35;6.50;;;3.90;;
76194;SDS011;64964;48.694;21.206;2023-02-08T10:23:37;6.78;;;4.65;;
76194;SDS011;64964;48.694;21.206;2023-02-08T10:29:20;5.70;;;4.07;;
76194;SDS011;64964;48.694;21.206;2023-02-08T10:37:14;6.13;;;4.00;;
76194;SDS011;64964;48.694;21.206;2023-02-08T10:39:41;7.13;;;3.97;;
76194;SDS011;64964;48.694;21.206;2023-02-08T10:42:12;6.82;;;4.05;;
76194;SDS011;64964;48.694;21.206;2023-02-08T10:50:21;5.53;;;3.67;;
76194;SDS011;64964;48.694;21.206;2023-02-08T10:52:54;5.18;;;3.22;;
76194;SDS011;64964;48.694;21.206;2023-02-08T10:55:20;10.98;;;3.80;;
76194;SDS011;64964;48.694;21.206;2023-02-08T10:57:46;6.10;;;3.40;;
76194;SDS011;64964;48.694;21.206;2023-02-08T11:00:25;4.50;;;3.05;;
76194;SDS011;64964;48.694;21.206;2023-02-08T11:02:53;4.93;;;3.25;;
76194;SDS011;64964;48.694;21.206;2023-02-08T11:08:05;4.03;;;2.90;;
76194;SDS011;64964;48.694;21.206;2023-02-08T11:10:34;5.37;;;3.23;;
76194;SDS011;64964;48.694;21.206;2023-02-08T11:15:48;5.22;;;3.35;;
76194;SDS011;64964;48.694;21.206;2023-02-08T11:18:24;6.10;;;3.40;;
76194;SDS011;64964;48.694;21.206;2023-02-08T11:20:56;6.50;;;3.38;;
76194;SDS011;64964;48.694;21.206;2023-02-08T11:23:25;4.43;;;3.67;;
76194;SDS011;64964;48.694;21.206;2023-02-08T11:25:54;7.07;;;4.03;;
76194;SDS011;64964;48.694;21.206;2023-02-08T11:28:36;7.80;;;4.20;;
76194;SDS011;64964;48.694;21.206;2023-02-08T11:31:02;5.37;;;3.60;;
76194;SDS011;64964;48.694;21.206;2023-02-08T11:34:06;6.00;;;3.17;;
76194;SDS011;64964;48.694;21.206;2023-02-08T11:36:31;6.03;;;3.33;;
76194;SDS011;64964;48.694;21.206;2023-02-08T11:39:05;5.45;;;3.45;;
76194;SDS011;64964;48.694;21.206;2023-02-08T11:41:42;5.43;;;3.40;;
76194;SDS011;64964;48.694;21.206;2023-02-08T11:44:12;10.07;;;3.92;;
76194;SDS011;64964;48.694;21.206;2023-02-08T11:46:45;6.22;;;3.60;;
76194;SDS011;64964;48.694;21.206;2023-02-08T11:49:23;5.45;;;3.30;;
76194;SDS011;64964;48.694;21.206;2023-02-08T11:51:51;8.23;;;3.55;;
76194;SDS011;64964;48.694;21.206;2023-02-08T11:54:39;8.37;;;3.77;;
76194;SDS011;64964;48.694;21.206;2023-02-08T11:57:16;5.95;;;3.78;;
76194;SDS011;64964;48.694;21.206;2023-02-08T11:59:47;5.25;;;3.38;;
76194;SDS011;64964;48.694;21.206;2023-02-08T12:05:00;8.75;;;3.85;;
76194;SDS011;64964;48.694;21.206;2023-02-08T12:10:27;8.98;;;3.65;;
76194;SDS011;64964;48.694;21.206;2023-02-08T12:13:23;8.48;;;3.63;;
76194;SDS011;64964;48.694;21.206;2023-02-08T12:21:36;5.60;;;3.37;;
76194;SDS011;64964;48.694;21.206;2023-02-08T12:26:45;5.25;;;3.03;;
76194;SDS011;64964;48.694;21.206;2023-02-08T12:29:16;6.28;;;3.50;;
76194;SDS011;64964;48.694;21.206;2023-02-08T12:34:26;7.23;;;3.90;;
76194;SDS011;64964;48.694;21.206;2023-02-08T12:40:33;7.32;;;3.63;;
76194;SDS011;64964;48.694;21.206;2023-02-08T12:45:46;7.37;;;3.23;;
76194;SDS011;64964;48.694;21.206;2023-02-08T12:53:56;7.30;;;4.27;;
76194;SDS011;64964;48.694;21.206;2023-02-08T12:56:29;7.57;;;3.78;;
76194;SDS011;64964;48.694;21.206;2023-02-08T12:59:00;6.50;;;3.78;;
76194;SDS011;64964;48.694;21.206;2023-02-08T13:01:42;6.22;;;3.47;;
76194;SDS011;64964;48.694;21.206;2023-02-08T13:04:18;6.40;;;3.50;;
76194;SDS011;64964;48.694;21.206;2023-02-08T13:06:52;6.87;;;4.07;;
76194;SDS011;64964;48.694;21.206;2023-02-08T13:09:33;6.22;;;3.58;;
76194;SDS011;64964;48.694;21.206;2023-02-08T13:14:44;8.38;;;3.58;;
76194;SDS011;64964;48.694;21.206;2023-02-08T13:17:19;6.10;;;3.70;;
76194;SDS011;64964;48.694;21.206;2023-02-08T13:22:40;6.85;;;3.55;;
76194;SDS011;64964;48.694;21.206;2023-02-08T13:25:13;6.68;;;3.83;;
76194;SDS011;64964;48.694;21.206;2023-02-08T13:27:45;7.55;;;3.53;;
76194;SDS011;64964;48.694;21.206;2023-02-08T13:30:17;9.87;;;3.70;;
76194;SDS011;64964;48.694;21.206;2023-02-08T13:32:44;6.53;;;3.65;;
76194;SDS011;64964;48.694;21.206;2023-02-08T13:35:15;8.18;;;3.72;;
76194;SDS011;64964;48.694;21.206;2023-02-08T13:38:45;6.55;;;3.75;;
76194;SDS011;64964;48.694;21.206;2023-02-08T13:40:44;7.07;;;3.42;;
76194;SDS011;64964;48.694;21.206;2023-02-08T13:43:22;9.37;;;3.60;;
76194;SDS011;64964;48.694;21.206;2023-02-08T13:45:54;6.50;;;2.90;;
76194;SDS011;64964;48.694;21.206;2023-02-08T13:48:23;6.57;;;3.67;;
76194;SDS011;64964;48.694;21.206;2023-02-08T13:50:51;7.13;;;3.20;;
76194;SDS011;64964;48.694;21.206;2023-02-08T13:54:03;6.38;;;3.65;;
76194;SDS011;64964;48.694;21.206;2023-02-08T13:56:04;6.13;;;3.50;;
76194;SDS011;64964;48.694;21.206;2023-02-08T13:58:37;6.88;;;3.60;;
76194;SDS011;64964;48.694;21.206;2023-02-08T14:01:23;5.87;;;3.07;;
76194;SDS011;64964;48.694;21.206;2023-02-08T14:06:33;5.88;;;3.10;;
76194;SDS011;64964;48.694;21.206;2023-02-08T14:09:23;5.78;;;3.08;;
76194;SDS011;64964;48.694;21.206;2023-02-08T14:12:17;8.73;;;3.60;;
76194;SDS011;64964;48.694;21.206;2023-02-08T14:17:31;6.00;;;3.53;;
76194;SDS011;64964;48.694;21.206;2023-02-08T14:19:58;5.85;;;3.20;;
76194;SDS011;64964;48.694;21.206;2023-02-08T14:22:27;7.30;;;3.22;;
76194;SDS011;64964;48.694;21.206;2023-02-08T14:25:02;4.45;;;2.97;;
76194;SDS011;64964;48.694;21.206;2023-02-08T14:27:36;6.53;;;3.07;;
76194;SDS011;64964;48.694;21.206;2023-02-08T14:32:46;4.95;;;3.15;;
76194;SDS011;64964;48.694;21.206;2023-02-08T14:37:42;7.38;;;3.88;;
76194;SDS011;64964;48.694;21.206;2023-02-08T14:45:50;6.72;;;3.55;;
76194;SDS011;64964;48.694;21.206;2023-02-08T14:48:25;6.57;;;3.55;;
76194;SDS011;64964;48.694;21.206;2023-02-08T14:50:54;9.40;;;3.80;;
76194;SDS011;64964;48.694;21.206;2023-02-08T14:56:14;6.57;;;3.33;;
76194;SDS011;64964;48.694;21.206;2023-02-08T15:01:21;6.25;;;3.30;;
76194;SDS011;64964;48.694;21.206;2023-02-08T15:03:58;4.90;;;3.08;;
76194;SDS011;64964;48.694;21.206;2023-02-08T15:06:34;6.60;;;3.20;;
76194;SDS011;64964;48.694;21.206;2023-02-08T15:09:18;5.63;;;3.15;;
76194;SDS011;64964;48.694;21.206;2023-02-08T15:12:10;5.80;;;3.13;;
76194;SDS011;64964;48.694;21.206;2023-02-08T15:14:39;5.18;;;3.20;;
76194;SDS011;64964;48.694;21.206;2023-02-08T15:17:05;5.82;;;3.30;;
76194;SDS011;64964;48.694;21.206;2023-02-08T15:19:39;7.70;;;3.57;;
76194;SDS011;64964;48.694;21.206;2023-02-08T15:22:28;7.30;;;3.72;;
76194;SDS011;64964;48.694;21.206;2023-02-08T15:24:58;7.13;;;3.88;;
76194;SDS011;64964;48.694;21.206;2023-02-08T15:27:26;8.73;;;4.00;;
76194;SDS011;64964;48.694;21.206;2023-02-08T15:29:54;9.40;;;4.40;;
76194;SDS011;64964;48.694;21.206;2023-02-08T15:32:20;8.40;;;4.97;;
76194;SDS011;64964;48.694;21.206;2023-02-08T15:34:55;11.30;;;5.35;;
76194;SDS011;64964;48.694;21.206;2023-02-08T15:37:26;9.93;;;5.10;;
76194;SDS011;64964;48.694;21.206;2023-02-08T15:39:56;11.98;;;5.80;;
76194;SDS011;64964;48.694;21.206;2023-02-08T15:42:27;11.18;;;6.30;;
76194;SDS011;64964;48.694;21.206;2023-02-08T15:44:56;15.88;;;7.95;;
76194;SDS011;64964;48.694;21.206;2023-02-08T15:49:54;16.57;;;7.20;;
76194;SDS011;64964;48.694;21.206;2023-02-08T15:52:23;18.38;;;8.23;;
76194;SDS011;64964;48.694;21.206;2023-02-08T15:54:51;22.90;;;9.30;;
76194;SDS011;64964;48.694;21.206;2023-02-08T15:57:21;23.53;;;8.07;;
76194;SDS011;64964;48.694;21.206;2023-02-08T16:00:04;13.05;;;6.22;;
76194;SDS011;64964;48.694;21.206;2023-02-08T16:02:38;14.20;;;6.28;;
76194;SDS011;64964;48.694;21.206;2023-02-08T16:05:38;12.82;;;6.47;;
76194;SDS011;64964;48.694;21.206;2023-02-08T16:07:58;14.63;;;7.07;;
76194;SDS011;64964;48.694;21.206;2023-02-08T16:10:34;13.90;;;7.80;;
76194;SDS011;64964;48.694;21.206;2023-02-08T16:13:05;13.20;;;7.32;;
76194;SDS011;64964;48.694;21.206;2023-02-08T16:15:46;11.98;;;6.22;;
76194;SDS011;64964;48.694;21.206;2023-02-08T16:21:02;11.07;;;5.20;;
76194;SDS011;64964;48.694;21.206;2023-02-08T16:23:32;9.43;;;5.30;;
76194;SDS011;64964;48.694;21.206;2023-02-08T16:29:44;15.40;;;5.88;;
76194;SDS011;64964;48.694;21.206;2023-02-08T16:32:06;14.40;;;6.13;;
76194;SDS011;64964;48.694;21.206;2023-02-08T16:34:43;17.20;;;5.57;;
76194;SDS011;64964;48.694;21.206;2023-02-08T16:39:52;13.48;;;5.25;;
76194;SDS011;64964;48.694;21.206;2023-02-08T16:42:21;17.20;;;5.72;;
76194;SDS011;64964;48.694;21.206;2023-02-08T16:47:26;12.60;;;5.20;;
76194;SDS011;64964;48.694;21.206;2023-02-08T16:49:58;16.50;;;5.20;;
76194;SDS011;64964;48.694;21.206;2023-02-08T16:52:23;13.13;;;4.27;;
76194;SDS011;64964;48.694;21.206;2023-02-08T16:54:49;9.77;;;4.60;;
76194;SDS011;64964;48.694;21.206;2023-02-08T16:57:14;12.27;;;4.80;;